createdAt,value
2018-12-12T00:01:11.365Z,5.70
2018-12-12T00:03:39.931Z,4.45
2018-12-12T00:06:08.537Z,4.42
2018-12-12T00:08:37.101Z,4.97
2018-12-12T00:11:05.924Z,8.23
2018-12-12T00:13:34.676Z,6.17
2018-12-12T00:16:03.602Z,9.38
2018-12-12T00:18:32.401Z,4.72
2018-12-12T00:21:01.205Z,5.67
2018-12-12T00:23:29.761Z,6.15
2018-12-12T00:25:58.557Z,7.00
2018-12-12T00:28:27.158Z,6.53
2018-12-12T00:30:55.721Z,4.78
2018-12-12T00:33:24.280Z,6.20
2018-12-12T00:35:52.864Z,6.45
2018-12-12T00:38:21.424Z,6.37
2018-12-12T00:40:50.012Z,7.60
2018-12-12T00:43:18.598Z,4.50
2018-12-12T00:45:47.159Z,6.53
2018-12-12T00:48:15.728Z,6.00
2018-12-12T00:50:44.280Z,5.20
2018-12-12T00:53:12.840Z,5.62
2018-12-12T00:55:41.422Z,3.92
2018-12-12T00:58:09.980Z,5.50
2018-12-12T01:00:38.535Z,6.37
2018-12-12T01:03:07.107Z,4.78
2018-12-12T01:05:35.683Z,8.70
2018-12-12T01:08:04.271Z,6.60
2018-12-12T01:10:32.884Z,4.20
2018-12-12T01:13:01.433Z,6.70
2018-12-12T01:15:30.000Z,8.50
2018-12-12T01:17:58.597Z,6.25
2018-12-12T01:20:27.157Z,4.35
2018-12-12T01:22:55.736Z,5.25
2018-12-12T01:25:24.287Z,5.12
2018-12-12T01:27:52.847Z,5.22
2018-12-12T01:30:21.496Z,6.58
2018-12-12T01:32:50.067Z,8.63
2018-12-12T01:35:18.624Z,5.72
2018-12-12T01:37:47.187Z,5.50
2018-12-12T01:40:15.744Z,6.00
2018-12-12T01:42:44.316Z,6.42
2018-12-12T01:45:12.899Z,8.43
2018-12-12T01:47:41.472Z,7.62
2018-12-12T01:50:10.051Z,5.30
2018-12-12T01:52:38.632Z,4.85
2018-12-12T01:55:07.162Z,6.17
2018-12-12T01:57:35.754Z,7.20
2018-12-12T02:00:04.672Z,4.70
2018-12-12T02:02:33.225Z,5.33
2018-12-12T02:05:01.798Z,5.33
2018-12-12T02:07:30.489Z,4.00
2018-12-12T02:09:59.045Z,7.33
2018-12-12T02:12:27.604Z,6.12
2018-12-12T02:14:56.185Z,4.15
2018-12-12T02:17:24.766Z,5.80
2018-12-12T02:19:53.343Z,4.20
2018-12-12T02:22:21.900Z,4.30
2018-12-12T02:24:50.476Z,5.72
2018-12-12T02:27:19.970Z,5.15
2018-12-12T02:29:48.521Z,5.83
2018-12-12T02:32:17.093Z,5.45
2018-12-12T02:34:45.666Z,6.05
2018-12-12T02:37:14.218Z,4.72
2018-12-12T02:39:42.789Z,5.40
2018-12-12T02:42:11.714Z,4.47
2018-12-12T02:44:40.285Z,7.70
2018-12-12T02:47:08.876Z,5.70
2018-12-12T02:49:37.440Z,4.95
2018-12-12T02:52:05.985Z,4.70
2018-12-12T02:54:34.553Z,5.30
2018-12-12T02:57:03.126Z,5.25
2018-12-12T02:59:31.678Z,5.30
2018-12-12T03:02:00.212Z,3.90
2018-12-12T03:04:28.777Z,4.20
2018-12-12T03:06:57.332Z,4.30
2018-12-12T03:09:25.918Z,6.30
2018-12-12T03:11:54.518Z,5.70
2018-12-12T03:14:23.060Z,6.15
2018-12-12T03:16:51.651Z,4.00
2018-12-12T03:19:20.217Z,5.62
2018-12-12T03:21:48.776Z,4.25
2018-12-12T03:24:17.351Z,4.08
2018-12-12T03:26:45.903Z,4.28
2018-12-12T03:29:14.501Z,10.48
2018-12-12T03:31:43.045Z,4.08
2018-12-12T03:34:11.593Z,5.87
2018-12-12T03:36:40.177Z,4.83
2018-12-12T03:39:08.784Z,4.42
2018-12-12T03:41:37.368Z,5.55
2018-12-12T03:44:05.936Z,6.42
2018-12-12T03:46:34.496Z,3.90
2018-12-12T03:49:03.829Z,5.35
2018-12-12T03:51:32.400Z,5.40
2018-12-12T03:54:00.993Z,4.03
2018-12-12T03:56:29.569Z,4.97
2018-12-12T03:58:58.155Z,7.15
2018-12-12T04:01:26.732Z,3.25
2018-12-12T04:03:56.073Z,4.55
2018-12-12T04:06:24.666Z,4.12
2018-12-12T04:08:53.209Z,5.87
2018-12-12T04:11:21.792Z,4.65
2018-12-12T04:13:50.344Z,5.97
2018-12-12T04:16:19.224Z,4.28
2018-12-12T04:18:48.144Z,3.47
2018-12-12T04:21:16.712Z,3.30
2018-12-12T04:23:45.261Z,4.95
2018-12-12T04:26:13.829Z,4.47
2018-12-12T04:28:42.373Z,5.10
2018-12-12T04:31:10.951Z,4.15
2018-12-12T04:33:39.520Z,7.50
2018-12-12T04:36:08.095Z,4.40
2018-12-12T04:38:36.675Z,3.98
2018-12-12T04:41:05.245Z,4.17
2018-12-12T04:43:33.780Z,4.17
2018-12-12T04:46:02.356Z,3.30
2018-12-12T04:48:30.954Z,5.00
2018-12-12T04:50:59.534Z,3.67
2018-12-12T04:53:28.092Z,5.60
2018-12-12T04:55:57.512Z,4.90
2018-12-12T04:58:26.130Z,4.22
2018-12-12T05:00:54.713Z,4.45
2018-12-12T05:03:23.250Z,3.20
2018-12-12T05:05:54.036Z,4.10
2018-12-12T05:08:22.586Z,6.97
2018-12-12T05:10:51.152Z,5.65
2018-12-12T05:13:19.696Z,4.40
2018-12-12T05:15:48.284Z,4.10
2018-12-12T05:18:16.841Z,3.83
2018-12-12T05:20:45.412Z,5.65
2018-12-12T05:23:13.989Z,6.80
2018-12-12T05:25:42.540Z,3.95
2018-12-12T05:28:11.093Z,3.15
2018-12-12T05:30:39.665Z,3.92
2018-12-12T05:33:08.228Z,5.25
2018-12-12T05:35:36.849Z,3.52
2018-12-12T05:38:05.395Z,3.60
2018-12-12T05:40:34.299Z,3.62
2018-12-12T05:43:03.221Z,4.65
2018-12-12T05:45:32.098Z,6.20
2018-12-12T05:48:00.644Z,5.65
2018-12-12T05:50:29.360Z,3.30
2018-12-12T05:52:57.908Z,5.35
2018-12-12T05:55:26.841Z,2.77
2018-12-12T05:57:55.399Z,5.25
2018-12-12T06:00:23.977Z,4.72
2018-12-12T06:02:52.536Z,5.05
2018-12-12T06:05:21.094Z,5.25
2018-12-12T06:07:49.665Z,6.75
2018-12-12T06:10:18.221Z,3.87
2018-12-12T06:12:46.800Z,5.35
2018-12-12T06:15:15.357Z,3.90
2018-12-12T06:17:43.905Z,3.67
2018-12-12T06:20:12.636Z,7.95
2018-12-12T06:22:41.523Z,7.25
2018-12-12T06:25:10.093Z,18.32
2018-12-12T06:27:38.706Z,19.92
2018-12-12T06:30:08.320Z,16.00
2018-12-12T06:32:36.881Z,13.78
2018-12-12T06:35:05.931Z,14.78
2018-12-12T06:37:34.480Z,9.78
2018-12-12T06:40:03.526Z,8.80
2018-12-12T06:42:32.206Z,9.60
2018-12-12T06:45:00.771Z,9.20
2018-12-12T06:47:29.378Z,6.03
2018-12-12T06:49:58.048Z,5.60
2018-12-12T06:52:26.637Z,5.42
2018-12-12T06:54:55.204Z,7.08
2018-12-12T06:57:23.771Z,5.67
2018-12-12T06:59:52.332Z,5.37
2018-12-12T07:02:20.917Z,16.45
2018-12-12T07:04:51.258Z,4.95
2018-12-12T07:07:20.168Z,6.03
2018-12-12T07:09:48.723Z,3.70
2018-12-12T07:12:17.688Z,4.87
2018-12-12T07:14:46.258Z,7.05
2018-12-12T07:17:14.812Z,7.12
2018-12-12T07:19:43.352Z,5.58
2018-12-12T07:22:11.924Z,9.75
2018-12-12T07:24:40.476Z,7.35
2018-12-12T07:27:09.056Z,5.85
2018-12-12T07:29:37.636Z,6.40
2018-12-12T07:32:06.201Z,10.30
2018-12-12T07:34:34.780Z,8.88
2018-12-12T07:37:03.348Z,6.03
2018-12-12T07:39:31.898Z,4.67
2018-12-12T07:42:00.505Z,6.45
2018-12-12T07:44:29.063Z,6.53
2018-12-12T07:46:57.967Z,6.03
2018-12-12T07:49:26.894Z,4.53
2018-12-12T07:51:55.732Z,4.80
2018-12-12T07:54:24.276Z,6.35
2018-12-12T07:56:53.027Z,6.47
2018-12-12T07:59:21.656Z,4.78
2018-12-12T08:01:50.245Z,4.55
2018-12-12T08:04:18.792Z,4.67
2018-12-12T08:06:47.407Z,4.17
2018-12-12T08:09:15.964Z,6.00
2018-12-12T08:11:44.520Z,5.62
2018-12-12T08:14:13.081Z,5.55
2018-12-12T08:16:41.689Z,9.25
2018-12-12T08:19:10.258Z,5.95
2018-12-12T08:21:38.828Z,4.25
2018-12-12T08:24:07.335Z,6.00
2018-12-12T08:26:35.960Z,10.08
2018-12-12T08:29:04.517Z,4.58
2018-12-12T08:31:33.109Z,5.92
2018-12-12T08:34:01.660Z,4.97
2018-12-12T08:36:30.241Z,5.37
2018-12-12T08:38:58.817Z,5.20
2018-12-12T08:41:27.385Z,5.03
2018-12-12T08:43:55.956Z,5.55
2018-12-12T08:46:24.552Z,7.12
2018-12-12T08:48:53.492Z,9.73
2018-12-12T08:51:22.065Z,5.12
2018-12-12T08:53:50.624Z,5.10
2018-12-12T08:56:19.200Z,6.50
2018-12-12T08:58:48.138Z,4.78
2018-12-12T09:01:16.818Z,6.05
2018-12-12T09:03:45.372Z,5.90
2018-12-12T09:06:13.929Z,6.45
2018-12-12T09:08:42.496Z,5.00
2018-12-12T09:11:11.062Z,6.67
2018-12-12T09:13:39.638Z,4.42
2018-12-12T09:16:08.196Z,6.85
2018-12-12T09:18:36.744Z,4.42
2018-12-12T09:21:05.337Z,6.45
2018-12-12T09:23:33.892Z,5.45
2018-12-12T09:26:02.464Z,4.37
2018-12-12T09:28:31.032Z,7.47
2018-12-12T09:30:59.548Z,6.42
2018-12-12T09:33:28.184Z,4.62
2018-12-12T09:35:56.841Z,5.08
2018-12-12T09:38:25.413Z,7.30
2018-12-12T09:40:54.249Z,4.85
2018-12-12T09:43:22.813Z,6.30
2018-12-12T09:45:51.397Z,4.40
2018-12-12T09:48:21.259Z,4.95
2018-12-12T09:50:50.220Z,4.40
2018-12-12T09:53:18.832Z,5.08
2018-12-12T09:55:47.392Z,7.15
2018-12-12T09:58:15.946Z,6.83
2018-12-12T10:00:44.540Z,6.45
2018-12-12T10:03:13.129Z,4.25
2018-12-12T10:05:41.692Z,5.55
2018-12-12T10:08:10.263Z,4.97
2018-12-12T10:10:38.817Z,6.17
2018-12-12T10:13:07.548Z,4.85
2018-12-12T10:15:36.132Z,4.90
2018-12-12T10:18:04.852Z,4.90
2018-12-12T10:20:33.418Z,9.03
2018-12-12T10:23:01.991Z,5.05
2018-12-12T10:25:30.550Z,6.37
2018-12-12T10:27:59.166Z,4.92
2018-12-12T10:30:27.745Z,4.17
2018-12-12T10:32:56.300Z,5.80
2018-12-12T10:35:24.885Z,5.85
2018-12-12T10:37:53.392Z,5.22
2018-12-12T10:40:22.041Z,7.58
2018-12-12T10:42:50.613Z,9.18
2018-12-12T10:45:19.214Z,6.40
2018-12-12T10:47:47.818Z,6.87
2018-12-12T10:50:16.501Z,5.10
2018-12-12T10:52:45.105Z,7.28
2018-12-12T10:55:13.693Z,4.47
2018-12-12T10:57:42.577Z,5.92
2018-12-12T11:00:12.904Z,9.15
2018-12-12T11:02:50.626Z,6.60
2018-12-12T11:05:19.521Z,7.10
2018-12-12T11:07:48.097Z,8.68
2018-12-12T11:10:17.012Z,7.33
2018-12-12T11:12:46.363Z,7.50
2018-12-12T11:15:14.949Z,5.65
2018-12-12T11:17:43.557Z,7.80
2018-12-12T11:20:12.133Z,7.08
2018-12-12T11:22:40.714Z,10.65
2018-12-12T11:25:09.437Z,6.67
2018-12-12T11:27:38.038Z,9.05
2018-12-12T11:30:06.893Z,8.43
2018-12-12T11:32:35.469Z,8.20
2018-12-12T11:35:04.340Z,9.85
2018-12-12T11:37:32.916Z,11.17
2018-12-12T11:40:01.931Z,9.75
2018-12-12T11:42:30.616Z,10.17
2018-12-12T11:44:59.207Z,9.70
2018-12-12T11:47:27.860Z,9.03
2018-12-12T11:49:56.453Z,7.80
2018-12-12T11:52:25.070Z,12.90
2018-12-12T11:54:53.654Z,10.33
2018-12-12T11:57:22.581Z,12.27
2018-12-12T11:59:51.156Z,9.20
2018-12-12T12:02:19.720Z,9.30
2018-12-12T12:04:48.321Z,14.13
2018-12-12T12:07:18.410Z,9.23
2018-12-12T12:09:47.104Z,8.60
2018-12-12T12:12:15.689Z,9.80
2018-12-12T12:14:44.248Z,9.93
2018-12-12T12:17:12.809Z,9.50
2018-12-12T12:19:41.384Z,8.87
2018-12-12T12:22:09.962Z,12.23
2018-12-12T12:24:38.528Z,9.60
2018-12-12T12:27:07.191Z,13.47
2018-12-12T12:29:35.785Z,10.77
2018-12-12T12:32:04.368Z,8.43
2018-12-12T12:34:32.939Z,8.27
2018-12-12T12:37:01.561Z,15.40
2018-12-12T12:39:30.142Z,19.00
2018-12-12T12:41:58.720Z,13.10
2018-12-12T12:44:27.309Z,17.57
2018-12-12T12:46:55.816Z,9.50
2018-12-12T12:49:24.501Z,11.27
2018-12-12T12:51:53.067Z,11.57
2018-12-12T12:54:21.628Z,14.13
2018-12-12T12:56:50.204Z,11.43
2018-12-12T12:59:18.792Z,9.57
2018-12-12T13:01:47.743Z,7.43
2018-12-12T13:04:16.403Z,9.93
2018-12-12T13:06:44.975Z,12.13
2018-12-12T13:09:13.565Z,11.40
2018-12-12T13:11:42.120Z,8.60
2018-12-12T13:14:10.748Z,12.47
2018-12-12T13:16:39.392Z,10.50
2018-12-12T13:19:07.953Z,11.20
2018-12-12T13:21:36.533Z,12.63
2018-12-12T13:24:05.100Z,10.30
2018-12-12T13:26:33.694Z,11.70
2018-12-12T13:29:02.277Z,9.43
2018-12-12T13:31:30.909Z,13.87
2018-12-12T13:33:59.499Z,6.17
2018-12-12T13:36:28.077Z,6.97
2018-12-12T13:38:56.645Z,6.13
2018-12-12T13:41:25.226Z,6.27
2018-12-12T13:43:53.801Z,5.53
2018-12-12T13:46:22.396Z,5.03
2018-12-12T13:48:51.240Z,6.50
2018-12-12T13:51:19.864Z,5.20
2018-12-12T13:53:48.449Z,6.23
2018-12-12T13:56:16.997Z,8.40
2018-12-12T13:58:45.561Z,5.43
2018-12-12T14:01:14.273Z,6.37
2018-12-12T14:03:42.837Z,6.60
2018-12-12T14:06:11.440Z,8.83
2018-12-12T14:08:39.992Z,6.50
2018-12-12T14:11:08.568Z,10.73
2018-12-12T14:13:37.144Z,7.20
2018-12-12T14:16:05.765Z,6.53
2018-12-12T14:18:34.352Z,7.30
2018-12-12T14:21:02.917Z,7.93
2018-12-12T14:23:31.484Z,9.80
2018-12-12T14:26:00.096Z,8.70
2018-12-12T14:28:28.651Z,13.40
2018-12-12T14:31:03.793Z,17.33
2018-12-12T14:33:32.357Z,8.07
2018-12-12T14:36:01.138Z,10.47
2018-12-12T14:38:29.961Z,16.00
2018-12-12T14:40:58.523Z,7.40
2018-12-12T14:43:27.137Z,9.97
2018-12-12T14:45:56.138Z,6.27
2018-12-12T14:48:30.172Z,8.53
2018-12-12T14:50:55.313Z,7.23
2018-12-12T14:53:23.864Z,12.83
2018-12-12T14:55:52.441Z,12.33
2018-12-12T14:58:21.032Z,13.73
2018-12-12T15:00:49.585Z,21.80
2018-12-12T15:03:18.174Z,14.97
2018-12-12T15:05:47.043Z,16.00
2018-12-12T15:08:15.613Z,11.70
2018-12-12T15:10:44.189Z,13.83
2018-12-12T15:13:12.760Z,18.60
2018-12-12T15:15:41.342Z,14.83
2018-12-12T15:18:09.915Z,14.57
2018-12-12T15:20:38.517Z,18.57
2018-12-12T15:23:07.216Z,12.10
2018-12-12T15:25:35.820Z,14.40
2018-12-12T15:28:04.518Z,14.40
2018-12-12T15:30:33.092Z,21.47
2018-12-12T15:33:01.742Z,17.53
2018-12-12T15:35:30.412Z,17.03
2018-12-12T15:37:58.977Z,25.43
2018-12-12T15:40:27.554Z,21.62
2018-12-12T15:42:56.129Z,21.37
2018-12-12T15:45:24.692Z,20.32
2018-12-12T15:47:53.273Z,26.03
2018-12-12T15:50:21.901Z,23.87
2018-12-12T15:52:50.467Z,23.03
2018-12-12T15:55:19.052Z,24.15
2018-12-12T15:57:47.656Z,27.13
2018-12-12T16:00:17.081Z,20.20
2018-12-12T16:02:45.901Z,29.27
2018-12-12T16:05:14.493Z,29.85
2018-12-12T16:07:43.081Z,23.80
2018-12-12T16:10:11.697Z,25.77
2018-12-12T16:12:40.270Z,28.83
2018-12-12T16:15:08.997Z,23.80
2018-12-12T16:17:37.592Z,22.42
2018-12-12T16:20:07.045Z,26.35
2018-12-12T16:22:35.626Z,27.35
2018-12-12T16:25:04.652Z,25.82
2018-12-12T16:27:33.237Z,21.70
2018-12-12T16:30:01.816Z,21.80
2018-12-12T16:32:30.406Z,22.70
2018-12-12T16:34:58.972Z,25.12
2018-12-12T16:37:27.569Z,23.00
2018-12-12T16:39:56.136Z,24.35
2018-12-12T16:42:24.711Z,23.10
2018-12-12T16:44:53.321Z,28.10
2018-12-12T16:47:21.889Z,25.27
2018-12-12T16:49:50.471Z,29.15
2018-12-12T16:52:19.081Z,24.07
2018-12-12T16:54:47.656Z,18.92
2018-12-12T16:57:16.230Z,20.30
2018-12-12T16:59:44.827Z,23.67
2018-12-12T17:02:13.389Z,26.40
2018-12-12T17:04:41.990Z,19.77
2018-12-12T17:07:10.575Z,24.35
2018-12-12T17:09:39.156Z,20.33
2018-12-12T17:12:07.812Z,32.13
2018-12-12T17:14:36.389Z,23.07
2018-12-12T17:17:04.962Z,18.92
2018-12-12T17:19:33.573Z,25.95
2018-12-12T17:22:02.137Z,22.13
2018-12-12T17:24:30.704Z,24.00
2018-12-12T17:26:59.292Z,24.47
2018-12-12T17:29:27.853Z,25.00
2018-12-12T17:31:56.416Z,28.23
2018-12-12T17:34:25.017Z,23.90
2018-12-12T17:36:54.056Z,23.55
2018-12-12T17:39:22.635Z,21.30
2018-12-12T17:41:51.212Z,29.50
2018-12-12T17:44:19.797Z,24.30
2018-12-12T17:46:48.404Z,23.85
2018-12-12T17:49:17.004Z,34.58
2018-12-12T17:51:45.578Z,27.02
2018-12-12T17:54:14.165Z,24.50
2018-12-12T17:56:42.769Z,22.20
2018-12-12T17:59:11.337Z,20.20
2018-12-12T18:01:39.914Z,22.67
2018-12-12T18:04:08.508Z,20.57
2018-12-12T18:06:37.051Z,23.00
2018-12-12T18:09:07.760Z,21.45
2018-12-12T18:11:36.365Z,26.17
2018-12-12T18:14:04.914Z,22.20
2018-12-12T18:16:33.537Z,23.30
2018-12-12T18:19:02.142Z,24.87
2018-12-12T18:21:30.729Z,24.55
2018-12-12T18:23:59.457Z,20.75
2018-12-12T18:26:28.055Z,21.90
2018-12-12T18:28:56.631Z,23.22
2018-12-12T18:31:25.270Z,18.90
2018-12-12T18:33:53.900Z,23.12
2018-12-12T18:36:22.488Z,17.82
2018-12-12T18:38:51.073Z,26.10
2018-12-12T18:41:19.662Z,35.75
2018-12-12T18:43:48.253Z,21.25
2018-12-12T18:46:16.850Z,24.05
2018-12-12T18:48:45.425Z,29.90
2018-12-12T18:51:14.061Z,22.50
2018-12-12T18:53:42.628Z,26.75
2018-12-12T18:56:11.541Z,21.50
2018-12-12T18:58:40.122Z,23.10
2018-12-12T19:01:08.707Z,22.73
2018-12-12T19:03:37.308Z,25.90
2018-12-12T19:06:05.900Z,31.05
2018-12-12T19:08:34.478Z,22.37
2018-12-12T19:11:03.078Z,29.15
2018-12-12T19:13:31.676Z,29.18
2018-12-12T19:16:00.253Z,27.10
2018-12-12T19:18:28.858Z,27.77
2018-12-12T19:21:01.997Z,24.32
2018-12-12T19:23:30.928Z,24.72
2018-12-12T19:25:59.501Z,32.30
2018-12-12T19:28:28.068Z,40.23
2018-12-12T19:30:56.656Z,31.57
2018-12-12T19:33:25.232Z,29.00
2018-12-12T19:35:53.844Z,25.97
2018-12-12T19:38:22.829Z,30.20
2018-12-12T19:40:51.393Z,27.52
2018-12-12T19:43:19.978Z,37.40
2018-12-12T19:45:48.587Z,33.67
2018-12-12T19:48:17.166Z,33.50
2018-12-12T19:50:45.757Z,32.95
2018-12-12T19:53:14.372Z,25.65
2018-12-12T19:55:42.952Z,33.80
2018-12-12T19:58:11.862Z,31.35
2018-12-12T20:00:40.436Z,27.70
2018-12-12T20:03:09.025Z,29.18
2018-12-12T20:05:41.492Z,28.87
2018-12-12T20:08:08.236Z,35.78
2018-12-12T20:10:36.813Z,30.70
2018-12-12T20:13:05.406Z,32.93
2018-12-12T20:15:39.141Z,30.45
2018-12-12T20:18:07.734Z,28.70
2018-12-12T20:20:36.309Z,30.27
2018-12-12T20:23:04.973Z,30.12
2018-12-12T20:25:33.677Z,28.90
2018-12-12T20:28:02.260Z,26.05
2018-12-12T20:30:35.376Z,35.90
2018-12-12T20:33:01.937Z,30.35
2018-12-12T20:35:30.504Z,30.82
2018-12-12T20:37:59.237Z,24.65
2018-12-12T20:40:27.805Z,28.20
2018-12-12T20:42:56.369Z,27.02
2018-12-12T20:45:25.017Z,26.65
2018-12-12T20:47:53.588Z,25.72
2018-12-12T20:50:22.274Z,28.70
2018-12-12T20:52:50.881Z,27.30
2018-12-12T20:55:19.449Z,36.53
2018-12-12T20:57:48.049Z,33.25
2018-12-12T21:00:16.632Z,30.75
2018-12-12T21:02:45.196Z,28.10
2018-12-12T21:05:13.790Z,26.20
2018-12-12T21:07:42.523Z,33.20
2018-12-12T21:10:11.204Z,26.07
2018-12-12T21:12:39.781Z,21.55
2018-12-12T21:15:08.724Z,24.92
2018-12-12T21:17:37.457Z,29.42
2018-12-12T21:20:08.540Z,22.22
2018-12-12T21:22:37.129Z,22.37
2018-12-12T21:25:06.537Z,25.60
2018-12-12T21:27:35.124Z,28.12
2018-12-12T21:30:04.085Z,26.60
2018-12-12T21:32:32.660Z,24.05
2018-12-12T21:35:01.255Z,32.83
2018-12-12T21:37:30.248Z,23.00
2018-12-12T21:39:59.779Z,27.73
2018-12-12T21:42:28.376Z,25.88
2018-12-12T21:44:56.948Z,28.35
2018-12-12T21:47:25.541Z,25.65
2018-12-12T21:49:54.133Z,22.40
2018-12-12T21:52:22.730Z,27.30
2018-12-12T21:54:51.304Z,22.85
2018-12-12T21:57:20.708Z,26.35
2018-12-12T21:59:49.273Z,24.82
2018-12-12T22:02:17.837Z,25.30
2018-12-12T22:04:47.161Z,28.98
2018-12-12T22:07:15.733Z,20.72
2018-12-12T22:09:44.407Z,22.30
2018-12-12T22:12:12.997Z,24.57
2018-12-12T22:14:41.548Z,22.37
2018-12-12T22:17:10.488Z,29.02
2018-12-12T22:19:39.068Z,25.20
2018-12-12T22:22:07.648Z,28.75
2018-12-12T22:24:36.211Z,21.40
2018-12-12T22:27:04.836Z,21.62
2018-12-12T22:29:33.421Z,23.00
2018-12-12T22:32:02.006Z,19.07
2018-12-12T22:34:30.557Z,21.52
2018-12-12T22:36:59.172Z,24.85
2018-12-12T22:39:27.734Z,25.10
2018-12-12T22:41:56.325Z,30.25
2018-12-12T22:44:24.880Z,25.20
2018-12-12T22:46:53.455Z,24.43
2018-12-12T22:49:22.046Z,19.37
2018-12-12T22:51:50.616Z,29.35
2018-12-12T22:54:19.217Z,28.27
2018-12-12T22:56:47.901Z,27.67
2018-12-12T22:59:16.469Z,25.00
2018-12-12T23:01:45.069Z,22.13
2018-12-12T23:04:13.646Z,28.05
2018-12-12T23:06:42.243Z,26.65
2018-12-12T23:09:10.942Z,28.30
2018-12-12T23:11:39.496Z,23.07
2018-12-12T23:14:08.081Z,21.87
2018-12-12T23:16:36.648Z,31.93
2018-12-12T23:19:05.242Z,25.62
2018-12-12T23:21:33.853Z,22.90
2018-12-12T23:24:02.513Z,28.47
2018-12-12T23:26:31.081Z,37.83
2018-12-12T23:28:59.666Z,38.78
2018-12-12T23:31:28.225Z,38.50
2018-12-12T23:33:56.780Z,41.77
2018-12-12T23:36:27.066Z,38.65
2018-12-12T23:38:55.865Z,42.60
2018-12-12T23:41:24.449Z,35.25
2018-12-12T23:43:53.030Z,33.58
2018-12-12T23:46:21.594Z,31.93
2018-12-12T23:48:50.169Z,35.98
2018-12-12T23:51:18.769Z,32.78
2018-12-12T23:53:47.401Z,40.35
2018-12-12T23:56:15.961Z,30.37
2018-12-12T23:58:44.564Z,35.40
